createdAt,value
2018-04-02T00:00:24.909Z,961.91
2018-04-02T00:01:24.913Z,961.85
2018-04-02T00:02:24.917Z,961.85
2018-04-02T00:03:24.928Z,961.94
2018-04-02T00:04:24.940Z,962.01
2018-04-02T00:05:24.969Z,962.02
2018-04-02T00:06:24.964Z,961.97
2018-04-02T00:07:24.976Z,961.88
2018-04-02T00:08:24.987Z,961.88
2018-04-02T00:09:25.002Z,961.96
2018-04-02T00:10:25.029Z,961.96
2018-04-02T00:11:25.021Z,961.98
2018-04-02T00:12:25.038Z,961.91
2018-04-02T00:13:25.066Z,961.91
2018-04-02T00:14:25.057Z,961.95
2018-04-02T00:15:25.070Z,961.95
2018-04-02T00:16:25.133Z,962.03
2018-04-02T00:17:25.092Z,962.03
2018-04-02T00:18:25.120Z,962.01
2018-04-02T00:19:25.120Z,962.00
2018-04-02T00:20:25.146Z,961.92
2018-04-02T00:21:25.138Z,961.93
2018-04-02T00:22:25.151Z,961.97
2018-04-02T00:23:25.163Z,961.97
2018-04-02T00:24:25.173Z,962.02
2018-04-02T00:25:25.219Z,962.03
2018-04-02T00:26:25.197Z,962.03
2018-04-02T00:27:25.208Z,962.05
2018-04-02T00:28:25.219Z,962.09
2018-04-02T00:29:25.258Z,962.14
2018-04-02T00:30:25.263Z,962.08
2018-04-02T00:31:25.257Z,962.06
2018-04-02T00:32:25.267Z,962.02
2018-04-02T00:33:25.292Z,961.99
2018-04-02T00:34:25.298Z,962.04
2018-04-02T00:35:25.306Z,962.04
2018-04-02T00:36:25.354Z,962.05
2018-04-02T00:37:25.324Z,962.09
2018-04-02T00:38:25.357Z,962.12
2018-04-02T00:39:25.349Z,962.13
2018-04-02T00:40:25.359Z,962.19
2018-04-02T00:41:25.391Z,962.18
2018-04-02T00:42:25.403Z,962.19
2018-04-02T00:43:25.396Z,962.23
2018-04-02T00:44:25.403Z,962.21
2018-04-02T00:45:25.413Z,962.18
2018-04-02T00:46:25.428Z,962.15
2018-04-02T00:47:25.504Z,962.12
2018-04-02T00:48:25.459Z,962.09
2018-04-02T00:49:25.465Z,962.09
2018-04-02T00:50:25.474Z,962.09
2018-04-02T00:51:25.485Z,962.08
2018-04-02T00:52:25.498Z,962.11
2018-04-02T00:53:25.525Z,962.19
2018-04-02T00:54:25.535Z,962.20
2018-04-02T00:55:25.534Z,962.21
2018-04-02T00:56:25.544Z,962.20
2018-04-02T00:57:25.558Z,962.14
2018-04-02T00:58:25.588Z,962.19
2018-04-02T00:59:25.578Z,962.17
2018-04-02T01:00:25.589Z,962.22
2018-04-02T01:01:25.600Z,962.26
2018-04-02T01:02:25.623Z,962.27
2018-04-02T01:03:25.641Z,962.26
2018-04-02T01:04:25.694Z,962.26
2018-04-02T01:05:25.648Z,962.25
2018-04-02T01:06:25.663Z,962.23
2018-04-02T01:07:25.673Z,962.28
2018-04-02T01:08:25.678Z,962.27
2018-04-02T01:09:25.720Z,962.31
2018-04-02T01:10:25.724Z,962.34
2018-04-02T01:11:25.722Z,962.38
2018-04-02T01:12:25.741Z,962.42
2018-04-02T01:13:25.746Z,962.40
2018-04-02T01:14:25.757Z,962.42
2018-04-02T01:15:25.806Z,962.41
2018-04-02T01:16:25.789Z,962.38
2018-04-02T01:17:25.789Z,962.41
2018-04-02T01:18:25.798Z,962.40
2018-04-02T01:19:25.813Z,962.41
2018-04-02T01:20:25.827Z,962.40
2018-04-02T01:21:25.867Z,962.39
2018-04-02T01:22:25.866Z,962.36
2018-04-02T01:23:25.868Z,962.32
2018-04-02T01:24:25.886Z,962.37
2018-04-02T01:25:25.896Z,962.35
2018-04-02T01:26:25.912Z,962.34
2018-04-02T01:27:25.941Z,962.36
2018-04-02T01:28:25.914Z,962.38
2018-04-02T01:29:25.951Z,962.37
2018-04-02T01:30:25.946Z,962.38
2018-04-02T01:31:25.958Z,962.36
2018-04-02T01:32:25.992Z,962.34
2018-04-02T01:33:25.993Z,962.34
2018-04-02T01:34:25.992Z,962.30
2018-04-02T01:35:25.999Z,962.33
2018-04-02T01:36:26.009Z,962.35
2018-04-02T01:37:27.560Z,962.39
2018-04-02T01:38:26.055Z,962.39
2018-04-02T01:39:26.049Z,962.37
2018-04-02T01:40:26.566Z,962.31
2018-04-02T01:41:26.064Z,962.27
2018-04-02T01:42:26.078Z,962.22
2018-04-02T01:43:26.086Z,962.20
2018-04-02T01:44:27.047Z,962.21
2018-04-02T01:45:26.139Z,962.29
2018-04-02T01:46:26.145Z,962.34
2018-04-02T01:47:26.194Z,962.30
2018-04-02T01:48:26.159Z,962.23
2018-04-02T01:49:26.176Z,962.23
2018-04-02T01:50:26.177Z,962.23
2018-04-02T01:51:26.207Z,962.22
2018-04-02T01:52:26.198Z,962.24
2018-04-02T01:53:26.202Z,962.22
2018-04-02T01:54:26.221Z,962.20
2018-04-02T01:55:26.237Z,962.23
2018-04-02T01:56:26.242Z,962.22
2018-04-02T01:57:26.267Z,962.28
2018-04-02T01:58:26.282Z,962.26
2018-04-02T01:59:26.288Z,962.27
2018-04-02T02:00:26.285Z,962.22
2018-04-02T02:01:26.296Z,962.20
2018-04-02T02:02:26.306Z,962.16
2018-04-02T02:03:26.345Z,962.16
2018-04-02T02:04:26.326Z,962.12
2018-04-02T02:05:26.346Z,962.19
2018-04-02T02:06:26.354Z,962.09
2018-04-02T02:07:26.363Z,962.14
2018-04-02T02:08:26.386Z,962.13
2018-04-02T02:09:26.434Z,962.10
2018-04-02T02:10:26.396Z,962.10
2018-04-02T02:11:26.409Z,962.05
2018-04-02T02:12:26.419Z,962.06
2018-04-02T02:13:26.431Z,962.02
2018-04-02T02:14:26.480Z,962.05
2018-04-02T02:15:26.453Z,962.00
2018-04-02T02:16:26.471Z,962.02
2018-04-02T02:17:26.479Z,962.03
2018-04-02T02:18:26.487Z,962.01
2018-04-02T02:19:26.530Z,961.97
2018-04-02T02:20:26.514Z,962.01
2018-04-02T02:21:26.520Z,962.02
2018-04-02T02:22:26.535Z,962.03
2018-04-02T02:23:26.551Z,962.01
2018-04-02T02:24:26.570Z,961.99
2018-04-02T02:25:26.599Z,961.98
2018-04-02T02:26:26.580Z,961.98
2018-04-02T02:27:26.606Z,961.98
2018-04-02T02:28:26.602Z,961.97
2018-04-02T02:29:26.620Z,961.93
2018-04-02T02:30:26.657Z,961.93
2018-04-02T02:31:26.637Z,961.96
2018-04-02T02:32:26.643Z,961.95
2018-04-02T02:33:26.667Z,961.99
2018-04-02T02:34:26.673Z,961.95
2018-04-02T02:35:26.700Z,962.01
2018-04-02T02:36:26.694Z,962.03
2018-04-02T02:37:26.753Z,962.04
2018-04-02T02:38:26.720Z,962.02
2018-04-02T02:39:26.738Z,962.02
2018-04-02T02:40:26.756Z,961.99
2018-04-02T02:41:26.751Z,961.94
2018-04-02T02:42:26.773Z,961.96
2018-04-02T02:43:26.777Z,961.93
2018-04-02T02:44:26.800Z,961.96
2018-04-02T02:45:26.832Z,961.89
2018-04-02T02:46:26.810Z,961.88
2018-04-02T02:47:26.825Z,961.87
2018-04-02T02:48:26.834Z,961.86
2018-04-02T02:49:26.843Z,961.88
2018-04-02T02:50:26.877Z,961.90
2018-04-02T02:51:26.866Z,961.95
2018-04-02T02:52:26.882Z,961.93
2018-04-02T02:53:26.935Z,961.96
2018-04-02T02:54:26.904Z,961.97
2018-04-02T02:55:26.922Z,961.95
2018-04-02T02:56:26.932Z,961.92
2018-04-02T02:57:26.941Z,961.90
2018-04-02T02:58:26.949Z,961.90
2018-04-02T02:59:26.990Z,961.89
2018-04-02T03:00:26.975Z,961.92
2018-04-02T03:01:26.982Z,961.93
2018-04-02T03:02:26.995Z,961.93
2018-04-02T03:03:27.007Z,961.94
2018-04-02T03:04:27.021Z,961.93
2018-04-02T03:05:27.045Z,961.90
2018-04-02T03:06:27.045Z,961.87
2018-04-02T03:07:27.049Z,961.80
2018-04-02T03:08:27.116Z,961.85
2018-04-02T03:09:27.087Z,961.83
2018-04-02T03:10:27.096Z,961.87
2018-04-02T03:11:27.104Z,961.86
2018-04-02T03:12:27.128Z,961.90
2018-04-02T03:13:27.154Z,961.90
2018-04-02T03:14:27.135Z,961.87
2018-04-02T03:15:27.165Z,961.85
2018-04-02T03:16:27.150Z,961.84
2018-04-02T03:17:27.168Z,961.80
2018-04-02T03:18:27.210Z,961.85
2018-04-02T03:19:27.181Z,961.82
2018-04-02T03:20:27.216Z,961.83
2018-04-02T03:21:27.207Z,961.83
2018-04-02T03:22:27.218Z,961.83
2018-04-02T03:23:27.267Z,961.84
2018-04-02T03:24:27.242Z,961.83
2018-04-02T03:25:27.257Z,961.80
2018-04-02T03:26:27.270Z,961.81
2018-04-02T03:27:27.279Z,961.80
2018-04-02T03:28:27.302Z,961.79
2018-04-02T03:29:27.300Z,961.79
2018-04-02T03:30:27.329Z,961.83
2018-04-02T03:31:27.324Z,961.81
2018-04-02T03:32:27.344Z,961.82
2018-04-02T03:33:27.344Z,961.85
2018-04-02T03:34:27.388Z,961.82
2018-04-02T03:35:27.366Z,961.86
2018-04-02T03:36:27.381Z,961.86
2018-04-02T03:37:27.391Z,961.87
2018-04-02T03:38:27.401Z,961.88
2018-04-02T03:39:27.440Z,961.85
2018-04-02T03:40:27.421Z,961.85
2018-04-02T03:41:27.431Z,961.83
2018-04-02T03:42:27.448Z,961.84
2018-04-02T03:43:27.462Z,961.86
2018-04-02T03:44:27.483Z,961.90
2018-04-02T03:45:27.499Z,961.88
2018-04-02T03:46:27.492Z,961.87
2018-04-02T03:47:27.501Z,961.86
2018-04-02T03:48:27.514Z,961.85
2018-04-02T03:49:27.524Z,961.88
2018-04-02T03:50:27.560Z,961.86
2018-04-02T03:51:27.546Z,961.90
2018-04-02T03:52:27.558Z,961.91
2018-04-02T03:53:27.569Z,961.87
2018-04-02T03:54:27.581Z,961.86
2018-04-02T03:55:27.628Z,961.90
2018-04-02T03:56:27.605Z,961.92
2018-04-02T03:57:27.612Z,961.90
2018-04-02T03:58:27.639Z,961.89
2018-04-02T03:59:27.633Z,961.94
2018-04-02T04:00:27.650Z,961.90
2018-04-02T04:01:27.672Z,961.94
2018-04-02T04:02:27.671Z,961.97
2018-04-02T04:03:27.676Z,961.96
2018-04-02T04:04:27.692Z,961.97
2018-04-02T04:05:27.729Z,961.98
2018-04-02T04:06:27.714Z,961.96
2018-04-02T04:07:27.727Z,961.95
2018-04-02T04:08:27.733Z,961.95
2018-04-02T04:09:27.747Z,961.95
2018-04-02T04:10:27.766Z,961.96
2018-04-02T04:11:27.782Z,961.99
2018-04-02T04:12:27.780Z,961.99
2018-04-02T04:13:27.793Z,961.99
2018-04-02T04:14:27.801Z,962.03
2018-04-02T04:15:27.817Z,962.03
2018-04-02T04:16:27.856Z,962.07
2018-04-02T04:17:27.837Z,962.01
2018-04-02T04:18:27.849Z,962.02
2018-04-02T04:19:28.571Z,962.01
2018-04-02T04:20:27.871Z,962.04
2018-04-02T04:21:27.921Z,962.05
2018-04-02T04:22:27.893Z,962.06
2018-04-02T04:23:27.896Z,962.08
2018-04-02T04:24:27.937Z,962.12
2018-04-02T04:25:27.950Z,962.10
2018-04-02T04:26:27.977Z,962.11
2018-04-02T04:27:28.000Z,962.08
2018-04-02T04:28:27.970Z,962.07
2018-04-02T04:29:27.974Z,962.04
2018-04-02T04:30:27.988Z,962.03
2018-04-02T04:31:28.032Z,962.07
2018-04-02T04:32:28.006Z,962.07
2018-04-02T04:33:28.010Z,962.11
2018-04-02T04:34:28.023Z,962.10
2018-04-02T04:35:28.031Z,962.09
2018-04-02T04:36:28.073Z,962.11
2018-04-02T04:37:28.056Z,962.12
2018-04-02T04:38:28.074Z,962.11
2018-04-02T04:39:28.075Z,962.09
2018-04-02T04:40:29.090Z,962.10
2018-04-02T04:41:28.114Z,962.12
2018-04-02T04:42:28.126Z,962.13
2018-04-02T04:43:28.125Z,962.07
2018-04-02T04:44:28.131Z,962.10
2018-04-02T04:45:28.143Z,962.10
2018-04-02T04:46:28.177Z,962.11
2018-04-02T04:47:28.165Z,962.14
2018-04-02T04:48:28.183Z,962.18
2018-04-02T04:49:28.187Z,962.21
2018-04-02T04:50:28.221Z,962.19
2018-04-02T04:51:28.247Z,962.12
2018-04-02T04:52:28.219Z,962.14
2018-04-02T04:53:28.227Z,962.13
2018-04-02T04:54:28.241Z,962.17
2018-04-02T04:55:28.257Z,962.14
2018-04-02T04:56:28.302Z,962.12
2018-04-02T04:57:28.291Z,962.12
2018-04-02T04:58:28.285Z,962.12
2018-04-02T04:59:28.321Z,962.14
2018-04-02T05:00:28.313Z,962.09
2018-04-02T05:01:28.348Z,962.11
2018-04-02T05:02:28.330Z,962.09
2018-04-02T05:03:28.343Z,962.08
2018-04-02T05:04:28.351Z,962.10
2018-04-02T05:05:28.361Z,962.09
2018-04-02T05:06:28.407Z,962.10
2018-04-02T05:07:28.386Z,962.09
2018-04-02T05:08:28.395Z,962.15
2018-04-02T05:09:28.404Z,962.12
2018-04-02T05:10:28.417Z,962.11
2018-04-02T05:11:28.442Z,962.14
2018-04-02T05:12:28.436Z,962.17
2018-04-02T05:13:28.491Z,962.15
2018-04-02T05:14:28.462Z,962.12
2018-04-02T05:15:28.490Z,962.15
2018-04-02T05:16:28.479Z,962.09
2018-04-02T05:17:28.494Z,962.07
2018-04-02T05:18:28.531Z,962.10
2018-04-02T05:19:28.515Z,962.09
2018-04-02T05:20:28.525Z,962.06
2018-04-02T05:21:28.531Z,962.07
2018-04-02T05:22:28.547Z,962.07
2018-04-02T05:23:28.563Z,962.10
2018-04-02T05:24:28.597Z,962.11
2018-04-02T05:25:28.577Z,962.14
2018-04-02T05:26:28.591Z,962.12
2018-04-02T05:27:28.599Z,962.10
2018-04-02T05:28:28.613Z,962.15
2018-04-02T05:29:28.637Z,962.14
2018-04-02T05:30:28.629Z,962.13
2018-04-02T05:31:28.654Z,962.13
2018-04-02T05:32:28.654Z,962.16
2018-04-02T05:33:28.700Z,962.16
2018-04-02T05:34:28.681Z,962.17
2018-04-02T05:35:28.690Z,962.16
2018-04-02T05:36:28.698Z,962.18
2018-04-02T05:37:28.714Z,962.19
2018-04-02T05:38:28.755Z,962.18
2018-04-02T05:39:28.735Z,962.20
2018-04-02T05:40:28.746Z,962.24
2018-04-02T05:41:32.801Z,962.19
2018-04-02T05:42:29.087Z,962.21
2018-04-02T05:43:28.789Z,962.24
2018-04-02T05:44:28.791Z,962.23
2018-04-02T05:45:28.805Z,962.23
2018-04-02T05:46:28.807Z,962.19
2018-04-02T05:47:28.824Z,962.26
2018-04-02T05:48:28.862Z,962.23
2018-04-02T05:49:28.867Z,962.26
2018-04-02T05:50:28.850Z,962.26
2018-04-02T05:51:28.863Z,962.24
2018-04-02T05:52:28.880Z,962.31
2018-04-02T05:53:28.900Z,962.29
2018-04-02T05:54:28.915Z,962.29
2018-04-02T05:55:28.925Z,962.27
2018-04-02T05:56:28.920Z,962.30
2018-04-02T05:57:28.934Z,962.24
2018-04-02T05:58:28.972Z,962.32
2018-04-02T05:59:28.953Z,962.29
2018-04-02T06:00:28.997Z,962.30
2018-04-02T06:01:29.029Z,962.29
2018-04-02T06:02:28.989Z,962.29
2018-04-02T06:03:29.011Z,962.25
2018-04-02T06:04:29.020Z,962.25
2018-04-02T06:05:29.035Z,962.24
2018-04-02T06:06:29.065Z,962.21
2018-04-02T06:07:29.060Z,962.22
2018-04-02T06:08:29.096Z,962.21
2018-04-02T06:09:29.071Z,962.17
2018-04-02T06:10:29.130Z,962.17
2018-04-02T06:11:29.094Z,962.19
2018-04-02T06:12:29.108Z,962.14
2018-04-02T06:13:29.119Z,962.21
2018-04-02T06:14:29.136Z,962.12
2018-04-02T06:15:29.161Z,962.15
2018-04-02T06:16:29.155Z,962.12
2018-04-02T06:17:29.171Z,962.14
2018-04-02T06:18:29.180Z,962.12
2018-04-02T06:19:29.190Z,962.11
2018-04-02T06:20:29.219Z,962.07
2018-04-02T06:21:29.214Z,962.07
2018-04-02T06:22:29.368Z,962.09
2018-04-02T06:23:29.339Z,962.05
2018-04-02T06:24:29.424Z,962.07
2018-04-02T06:25:29.275Z,962.10
2018-04-02T06:26:29.444Z,962.05
2018-04-02T06:27:29.543Z,962.09
2018-04-02T06:28:29.310Z,962.08
2018-04-02T06:29:29.316Z,962.07
2018-04-02T06:30:29.448Z,962.07
2018-04-02T06:31:29.338Z,962.08
2018-04-02T06:32:29.370Z,962.09
2018-04-02T06:33:29.366Z,962.05
2018-04-02T06:34:29.381Z,962.05
2018-04-02T06:39:00.449Z,962.01
2018-04-02T06:39:49.636Z,962.03
2018-04-02T06:40:49.845Z,962.08
2018-04-02T06:41:49.663Z,962.05
2018-04-02T06:42:49.684Z,962.03
2018-04-02T06:43:49.684Z,962.03
2018-04-02T06:44:49.742Z,962.01
2018-04-02T06:45:49.710Z,962.04
2018-04-02T06:46:49.735Z,962.01
2018-04-02T06:47:49.738Z,962.01
2018-04-02T06:48:49.753Z,962.01
2018-04-02T06:49:49.783Z,962.01
2018-04-02T06:50:49.778Z,962.01
2018-04-02T06:51:49.791Z,962.00
2018-04-02T06:57:26.958Z,962.03
2018-04-02T06:58:26.946Z,962.04
2018-04-02T06:59:26.958Z,962.05
2018-04-02T07:00:26.970Z,962.05
2018-04-02T07:01:26.984Z,962.04
2018-04-02T07:02:27.012Z,962.04
2018-04-02T07:03:27.010Z,962.03
2018-04-02T07:04:27.049Z,962.03
2018-04-02T07:05:27.036Z,962.03
2018-04-02T07:06:27.049Z,962.01
2018-04-02T07:07:27.074Z,961.99
2018-04-02T07:08:27.074Z,962.01
2018-04-02T07:09:27.093Z,962.01
2018-04-02T07:10:27.124Z,962.01
2018-04-02T07:11:27.119Z,962.03
2018-04-02T07:12:27.131Z,961.97
2018-04-02T07:13:27.143Z,961.95
2018-04-02T07:14:27.159Z,961.95
2018-04-02T07:15:27.190Z,961.94
2018-04-02T07:16:27.190Z,961.97
2018-04-02T07:17:27.230Z,961.96
2018-04-02T07:18:27.209Z,961.98
2018-04-02T07:19:27.242Z,961.96
2018-04-02T07:20:27.240Z,961.98
2018-04-02T07:21:27.254Z,962.01
2018-04-02T07:22:27.312Z,961.98
2018-04-02T07:23:27.281Z,961.98
2018-04-02T07:24:27.296Z,961.99
2018-04-02T07:25:27.308Z,962.04
2018-04-02T07:26:27.322Z,962.03
2018-04-02T07:27:27.365Z,962.02
2018-04-02T07:28:27.350Z,962.02
2018-04-02T07:29:27.407Z,961.98
2018-04-02T07:30:27.376Z,962.03
2018-04-02T07:31:27.396Z,962.00
2018-04-02T07:32:27.410Z,961.98
2018-04-02T07:33:27.445Z,961.99
2018-04-02T07:34:27.433Z,961.96
2018-04-02T07:35:27.445Z,961.95
2018-04-02T07:36:27.462Z,961.89
2018-04-02T07:41:00.807Z,961.93
2018-04-02T07:42:00.785Z,961.89
2018-04-02T07:43:00.794Z,961.89
2018-04-02T07:44:00.810Z,961.89
2018-04-02T07:45:00.822Z,961.87
2018-04-02T07:46:00.838Z,961.87
2018-04-02T07:47:00.881Z,961.89
2018-04-02T07:48:00.867Z,961.89
2018-04-02T07:49:00.874Z,961.92
2018-04-02T07:50:00.891Z,961.95
2018-04-02T07:51:00.906Z,961.91
2018-04-02T07:52:01.098Z,961.95
2018-04-02T07:53:00.931Z,961.92
2018-04-02T07:54:00.948Z,961.93
2018-04-02T07:55:00.959Z,961.90
2018-04-02T07:56:00.983Z,961.98
2018-04-02T07:57:01.011Z,961.94
2018-04-02T07:58:01.003Z,961.88
2018-04-02T07:59:01.019Z,961.91
2018-04-02T08:00:01.030Z,961.89
2018-04-02T08:01:01.071Z,961.90
2018-04-02T08:02:01.076Z,961.90
2018-04-02T08:03:01.143Z,961.86
2018-04-02T08:04:01.095Z,961.84
2018-04-02T08:05:01.729Z,961.85
2018-04-02T08:06:01.125Z,961.80
2018-04-02T08:07:01.148Z,961.73
2018-04-02T08:08:01.148Z,961.83
2018-04-02T08:09:01.199Z,961.78
2018-04-02T08:10:01.362Z,961.76
2018-04-02T08:11:01.421Z,961.80
2018-04-02T08:12:01.256Z,961.75
2018-04-02T08:13:01.411Z,961.74
2018-04-02T08:14:01.394Z,961.70
2018-04-02T08:15:01.429Z,961.74
2018-04-02T08:16:01.264Z,961.73
2018-04-02T08:17:01.279Z,961.73
2018-04-02T08:18:01.365Z,961.74
2018-04-02T08:19:01.347Z,961.72
2018-04-02T08:20:01.460Z,961.74
2018-04-02T08:21:01.340Z,961.73
2018-04-02T08:22:01.367Z,961.70
2018-04-02T08:23:01.379Z,961.67
2018-04-02T08:24:01.584Z,961.70
2018-04-02T08:25:01.427Z,961.64
2018-04-02T08:26:01.457Z,961.65
2018-04-02T08:27:01.440Z,961.61
2018-04-02T08:28:01.563Z,961.64
2018-04-02T08:29:01.654Z,961.67
2018-04-02T08:30:01.563Z,961.67
2018-04-02T08:31:01.920Z,961.64
2018-04-02T08:32:03.936Z,961.65
2018-04-02T08:33:02.682Z,961.60
2018-04-02T08:34:03.850Z,961.63
2018-04-02T08:35:01.789Z,961.57
2018-04-02T08:36:01.564Z,961.56
2018-04-02T08:37:01.579Z,961.57
2018-04-02T08:38:02.044Z,961.59
2018-04-02T08:39:01.893Z,961.60
2018-04-02T08:40:01.860Z,961.62
2018-04-02T08:41:01.845Z,961.63
2018-04-02T08:42:01.856Z,961.62
2018-04-02T08:43:01.725Z,961.68
2018-04-02T08:44:02.093Z,961.64
2018-04-02T08:45:01.748Z,961.61
2018-04-02T08:46:01.938Z,961.58
2018-04-02T08:47:01.740Z,961.61
2018-04-02T08:48:01.972Z,961.62
2018-04-02T08:49:01.767Z,961.60
2018-04-02T08:50:01.830Z,961.58
2018-04-02T08:51:01.815Z,961.59
2018-04-02T08:52:01.831Z,961.56
2018-04-02T08:53:01.825Z,961.59
2018-04-02T08:54:01.842Z,961.56
2018-04-02T08:55:02.106Z,961.57
2018-04-02T08:56:01.905Z,961.61
2018-04-02T08:57:01.922Z,961.59
2018-04-02T08:58:01.907Z,961.61
2018-04-02T08:59:01.921Z,961.60
2018-04-02T09:00:01.937Z,961.52
2018-04-02T09:01:01.970Z,961.56
2018-04-02T09:02:01.965Z,961.56
2018-04-02T09:03:02.000Z,961.58
2018-04-02T09:04:02.018Z,961.55
2018-04-02T09:05:02.048Z,961.54
2018-04-02T09:06:02.046Z,961.54
2018-04-02T09:07:02.257Z,961.51
2018-04-02T09:08:02.097Z,961.51
2018-04-02T09:09:02.074Z,961.43
2018-04-02T09:10:02.097Z,961.45
2018-04-02T09:11:02.136Z,961.47
2018-04-02T09:12:02.126Z,961.42
2018-04-02T09:13:02.148Z,961.40
2018-04-02T09:14:02.157Z,961.41
2018-04-02T09:15:02.173Z,961.34
2018-04-02T09:16:02.192Z,961.36
2018-04-02T09:17:02.272Z,961.34
2018-04-02T09:18:02.419Z,961.31
2018-04-02T09:19:02.234Z,961.28
2018-04-02T09:20:02.405Z,961.31
2018-04-02T09:21:02.288Z,961.28
2018-04-02T09:22:02.379Z,961.28
2018-04-02T09:23:02.342Z,961.28
2018-04-02T09:24:02.349Z,961.32
2018-04-02T09:25:02.340Z,961.21
2018-04-02T09:26:02.348Z,961.25
2018-04-02T09:27:02.389Z,961.20
2018-04-02T09:28:02.379Z,961.21
2018-04-02T09:29:02.434Z,961.21
2018-04-02T09:30:02.412Z,961.21
2018-04-02T09:31:02.434Z,961.16
2018-04-02T09:32:02.465Z,961.23
2018-04-02T09:33:02.459Z,961.20
2018-04-02T09:34:02.497Z,961.19
2018-04-02T09:35:02.549Z,961.25
2018-04-02T09:36:02.854Z,961.21
2018-04-02T09:37:02.713Z,961.25
2018-04-02T09:38:02.546Z,961.16
2018-04-02T09:39:02.762Z,961.15
2018-04-02T09:40:05.613Z,961.15
2018-04-02T09:41:02.606Z,961.17
2018-04-02T09:42:02.868Z,961.16
2018-04-02T09:43:02.648Z,961.15
2018-04-02T09:44:02.637Z,961.07
2018-04-02T09:45:02.793Z,961.15
2018-04-02T09:46:02.879Z,961.17
2018-04-02T09:47:02.703Z,961.14
2018-04-02T09:48:02.908Z,961.18
2018-04-02T09:49:02.767Z,961.18
2018-04-02T09:50:02.740Z,961.17
2018-04-02T09:51:02.934Z,961.12
2018-04-02T09:52:02.964Z,961.08
2018-04-02T09:53:02.896Z,961.09
2018-04-02T09:54:02.823Z,961.11
2018-04-02T09:55:02.964Z,961.14
2018-04-02T09:56:02.854Z,961.17
2018-04-02T09:57:02.858Z,961.14
2018-04-02T09:58:02.904Z,961.07
2018-04-02T09:59:02.887Z,961.08
2018-04-02T10:00:02.942Z,961.06
2018-04-02T10:01:02.919Z,961.05
2018-04-02T10:02:02.948Z,961.01
2018-04-02T10:03:02.971Z,961.06
2018-04-02T10:04:02.977Z,961.00
2018-04-02T10:05:03.107Z,961.04
2018-04-02T10:06:03.007Z,961.01
2018-04-02T10:07:03.017Z,960.99
2018-04-02T10:08:03.072Z,960.95
2018-04-02T10:09:03.049Z,960.94
2018-04-02T10:10:03.101Z,960.90
2018-04-02T10:11:03.091Z,960.92
2018-04-02T10:12:03.106Z,960.89
2018-04-02T10:13:03.157Z,960.89
2018-04-02T10:14:03.133Z,960.86
2018-04-02T10:15:03.211Z,960.93
2018-04-02T10:16:03.352Z,960.91
2018-04-02T10:17:03.231Z,960.93
2018-04-02T10:18:03.262Z,960.92
2018-04-02T10:19:03.223Z,960.86
2018-04-02T10:20:03.377Z,960.87
2018-04-02T10:21:03.368Z,960.86
2018-04-02T10:22:03.405Z,960.87
2018-04-02T10:23:03.512Z,960.82
2018-04-02T10:24:03.462Z,960.83
2018-04-02T10:25:03.420Z,960.80
2018-04-02T10:26:03.381Z,960.78
2018-04-02T10:27:03.467Z,960.77
2018-04-02T10:28:03.388Z,960.74
2018-04-02T10:29:03.413Z,960.75
2018-04-02T10:30:03.404Z,960.72
2018-04-02T10:31:03.469Z,960.73
2018-04-02T10:32:03.431Z,960.70
2018-04-02T10:33:03.448Z,960.71
2018-04-02T10:34:03.494Z,960.69
2018-04-02T10:35:03.475Z,960.64
2018-04-02T10:36:03.498Z,960.64
2018-04-02T10:37:03.512Z,960.64
2018-04-02T10:38:03.540Z,960.62
2018-04-02T10:39:03.867Z,960.54
2018-04-02T10:40:03.558Z,960.50
2018-04-02T10:41:03.593Z,960.47
2018-04-02T10:42:03.592Z,960.46
2018-04-02T10:43:03.650Z,960.53
2018-04-02T10:44:03.625Z,960.48
2018-04-02T10:45:03.639Z,960.51
2018-04-02T10:46:03.666Z,960.41
2018-04-02T10:47:03.716Z,960.41
2018-04-02T10:48:03.704Z,960.41
2018-04-02T10:49:03.705Z,960.44
2018-04-02T10:50:03.721Z,960.36
2018-04-02T10:51:03.756Z,960.36
2018-04-02T10:52:03.842Z,960.35
2018-04-02T10:53:03.806Z,960.35
2018-04-02T10:54:03.790Z,960.33
2018-04-02T10:55:03.805Z,960.33
2018-04-02T10:56:03.813Z,960.32
2018-04-02T10:57:03.865Z,960.28
2018-04-02T10:58:03.861Z,960.24
2018-04-02T10:59:03.863Z,960.25
2018-04-02T11:00:03.895Z,960.29
2018-04-02T11:01:04.086Z,960.18
2018-04-02T11:02:03.909Z,960.19
2018-04-02T11:03:03.928Z,960.20
2018-04-02T11:04:03.986Z,960.16
2018-04-02T11:05:03.958Z,960.16
2018-04-02T11:06:04.051Z,960.16
2018-04-02T11:07:03.989Z,960.13
2018-04-02T11:08:04.023Z,960.12
2018-04-02T11:09:04.050Z,960.10
2018-04-02T11:10:04.038Z,960.11
2018-04-02T11:11:04.053Z,960.12
2018-04-02T11:12:04.078Z,960.06
2018-04-02T11:13:04.125Z,960.07
2018-04-02T11:14:04.100Z,960.00
2018-04-02T11:15:04.131Z,959.98
2018-04-02T11:16:04.132Z,959.94
2018-04-02T11:17:04.147Z,959.97
2018-04-02T11:18:04.215Z,959.93
2018-04-02T11:19:04.218Z,959.91
2018-04-02T11:20:04.203Z,959.91
2018-04-02T11:21:04.209Z,959.88
2018-04-02T11:22:04.231Z,959.84
2018-04-02T11:23:04.260Z,959.82
2018-04-02T11:24:04.264Z,959.80
2018-04-02T11:25:04.277Z,959.79
2018-04-02T11:26:04.290Z,959.81
2018-04-02T11:27:04.307Z,959.77
2018-04-02T11:28:04.341Z,959.77
2018-04-02T11:29:04.342Z,959.76
2018-04-02T11:30:04.354Z,959.69
2018-04-02T11:31:04.373Z,959.67
2018-04-02T11:32:04.386Z,959.70
2018-04-02T11:33:04.433Z,959.71
2018-04-02T11:34:04.417Z,959.64
2018-04-02T11:35:04.434Z,959.67
2018-04-02T11:36:04.450Z,959.65
2018-04-02T11:37:04.468Z,959.63
2018-04-02T11:38:04.499Z,959.62
2018-04-02T11:39:04.499Z,959.60
2018-04-02T11:40:04.510Z,959.57
2018-04-02T11:41:04.530Z,959.60
2018-04-02T11:42:04.543Z,959.57
2018-04-02T11:43:04.597Z,959.55
2018-04-02T11:44:04.580Z,959.53
2018-04-02T11:45:04.594Z,959.50
2018-04-02T11:46:04.616Z,959.53
2018-04-02T11:47:04.627Z,959.48
2018-04-02T11:48:04.685Z,959.48
2018-04-02T11:49:04.660Z,959.48
2018-04-02T11:50:04.674Z,959.46
2018-04-02T11:51:04.688Z,959.44
2018-04-02T11:52:04.705Z,959.45
2018-04-02T11:53:04.739Z,959.44
2018-04-02T11:54:04.736Z,959.42
2018-04-02T11:55:05.296Z,959.38
2018-04-02T11:56:04.773Z,959.41
2018-04-02T11:57:07.307Z,959.38
2018-04-02T11:58:04.805Z,959.34
2018-04-02T11:59:04.820Z,959.32
2018-04-02T12:00:04.838Z,959.31
2018-04-02T12:01:05.834Z,959.29
2018-04-02T12:02:04.868Z,959.30
2018-04-02T12:03:04.885Z,959.31
2018-04-02T12:04:04.902Z,959.30
2018-04-02T12:05:04.953Z,959.19
2018-04-02T12:06:04.939Z,959.29
2018-04-02T12:07:04.950Z,959.22
2018-04-02T12:08:04.970Z,959.19
2018-04-02T12:09:04.984Z,959.20
2018-04-02T12:10:05.016Z,959.21
2018-04-02T12:11:05.018Z,959.18
2018-04-02T12:12:05.034Z,959.15
2018-04-02T12:13:05.052Z,959.16
2018-04-02T12:14:05.066Z,959.16
2018-04-02T12:15:05.103Z,959.14
2018-04-02T12:16:05.099Z,959.14
2018-04-02T12:17:05.196Z,959.14
2018-04-02T12:18:05.131Z,959.16
2018-04-02T12:19:05.152Z,959.10
2018-04-02T12:20:05.169Z,959.09
2018-04-02T12:21:05.237Z,959.04
2018-04-02T12:22:05.221Z,959.06
2018-04-02T12:23:05.212Z,959.02
2018-04-02T12:24:05.235Z,959.02
2018-04-02T12:25:05.249Z,959.00
2018-04-02T12:26:05.297Z,958.98
2018-04-02T12:27:05.315Z,958.96
2018-04-02T12:28:05.296Z,958.94
2018-04-02T12:29:05.315Z,958.90
2018-04-02T12:30:05.331Z,958.87
2018-04-02T12:31:05.349Z,958.87
2018-04-02T12:32:05.379Z,958.90
2018-04-02T12:33:05.377Z,958.83
2018-04-02T12:34:05.401Z,958.80
2018-04-02T12:35:05.412Z,958.81
2018-04-02T12:36:05.429Z,958.85
2018-04-02T12:37:05.483Z,958.82
2018-04-02T12:38:05.466Z,958.82
2018-04-02T12:39:05.480Z,958.78
2018-04-02T12:40:05.497Z,958.73